Groton, South Dakota
Current Conditions -  °F | °C
As of 11:53 AM on Thursday 27 Nov 2014 (Local Time) from KABR Reporting Station
Clear Clear  
Wind Chill: -13°   Ceiling: Unl
Heat Index:   Visibility: 10mi
Dew Point: -5°   Wind: 13mph
Humidity: 66%   Direction: 170°S
Pressure: 30.37"   Gusts: NA
Location:  45.45°N, 98.1°W
Report Text: KABR 271753Z AUTO 17011KT 10SM CLR M16/M21 A3037 RMK AO2 SLP321 T11561206 11156 21256 58028 $
Loading
Personal Weather Stations






























Interactive Weather Map New forecast layout! Learn more

10-Day Weather Forecast

Advertisements
Track Severe Weather on mobile